createdAt,value
2023-03-11T14:44:42.294Z,77.38
2023-03-11T14:47:11.580Z,76.49
2023-03-11T14:49:39.799Z,75.17
2023-03-11T14:52:10.689Z,73.15
2023-03-11T14:54:37.906Z,75.02
2023-03-11T14:57:06.393Z,76.19
2023-03-11T14:59:33.680Z,75.71
2023-03-11T15:02:06.917Z,77.47
2023-03-11T15:04:34.862Z,75.19
2023-03-11T15:07:02.093Z,74.58
2023-03-11T15:09:29.404Z,74.78
2023-03-11T15:11:57.181Z,75.39
2023-03-11T15:14:25.143Z,76.56
2023-03-11T15:16:52.380Z,76.99
2023-03-11T15:19:31.188Z,76.04
2023-03-11T15:21:59.196Z,76.79
2023-03-11T15:24:27.841Z,76.47
2023-03-11T15:26:56.749Z,76.41
2023-03-11T15:29:24.390Z,75.83
2023-03-11T15:31:51.762Z,75.62
2023-03-11T15:34:22.701Z,76.17
2023-03-11T15:37:04.740Z,76.08
2023-03-11T15:39:42.666Z,76.61
2023-03-11T15:42:15.107Z,77.38
2023-03-11T15:44:42.903Z,75.74
2023-03-11T15:47:12.192Z,76.86
2023-03-11T15:49:39.352Z,77.12
2023-03-11T15:52:08.161Z,77.85
2023-03-11T15:54:35.432Z,77.78
2023-03-11T15:57:02.699Z,77.83
2023-03-11T15:59:29.967Z,77.75
2023-03-11T16:01:57.126Z,78.22
2023-03-11T16:04:24.371Z,77.25
2023-03-11T16:07:02.883Z,76.73
2023-03-11T16:09:35.425Z,77.59
2023-03-11T16:12:02.726Z,78.11
2023-03-11T16:14:29.959Z,77.14
2023-03-11T16:16:57.215Z,76.66
2023-03-11T16:19:24.409Z,76.03
2023-03-11T16:21:51.609Z,77.07
2023-03-11T16:24:19.710Z,76.59
2023-03-11T16:26:48.305Z,76.47
2023-03-11T16:29:19.319Z,76.74
2023-03-11T16:31:47.242Z,77.71
2023-03-11T16:34:14.546Z,77.43
2023-03-11T16:36:42.328Z,77.47
2023-03-11T16:39:10.210Z,77.91
2023-03-11T16:41:40.896Z,77.34
2023-03-11T16:44:09.964Z,77.78
2023-03-11T16:46:37.585Z,77.97
2023-03-11T16:49:05.831Z,77.40
2023-03-11T16:51:33.362Z,76.98
2023-03-11T16:54:01.598Z,76.05
2023-03-11T16:56:29.224Z,76.99
2023-03-11T16:58:56.372Z,76.93
2023-03-11T17:01:25.094Z,76.63
2023-03-11T17:03:53.849Z,75.80
2023-03-11T17:06:21.237Z,77.42
2023-03-11T17:08:49.445Z,76.92
2023-03-11T17:11:17.515Z,75.43
2023-03-11T17:13:44.678Z,76.03
2023-03-11T17:16:12.043Z,76.82
2023-03-11T17:18:40.935Z,76.63
2023-03-11T17:21:08.644Z,75.86
2023-03-11T17:23:36.005Z,76.84
2023-03-11T17:26:03.305Z,75.99
2023-03-11T17:28:30.484Z,77.05
2023-03-11T17:30:57.870Z,77.29
2023-03-11T17:33:25.065Z,77.07
2023-03-11T17:36:01.323Z,77.73
2023-03-11T17:38:28.561Z,77.38
2023-03-11T17:40:55.691Z,76.78
2023-03-11T17:43:22.903Z,78.33
2023-03-11T17:45:50.062Z,77.85
2023-03-11T17:48:17.186Z,77.56
2023-03-11T17:50:44.314Z,78.11
2023-03-11T17:53:12.893Z,77.88
2023-03-11T17:55:40.022Z,77.39
2023-03-11T17:58:07.251Z,77.57
2023-03-11T18:00:34.351Z,76.95
2023-03-11T18:03:01.565Z,76.87
2023-03-11T18:05:28.737Z,76.85
2023-03-11T18:07:55.977Z,76.50
2023-03-11T18:10:24.613Z,76.07
2023-03-11T18:12:51.894Z,76.25
2023-03-11T18:15:19.368Z,76.55
2023-03-11T18:17:46.985Z,76.64
2023-03-11T18:20:14.143Z,77.12
2023-03-11T18:22:44.397Z,76.37
2023-03-11T18:25:13.147Z,75.81
2023-03-11T18:27:41.704Z,78.10
2023-03-11T18:30:10.314Z,77.83
2023-03-11T18:32:37.482Z,77.14
2023-03-11T18:35:07.668Z,78.13
2023-03-11T18:37:34.891Z,76.37
2023-03-11T18:40:02.089Z,77.29
2023-03-11T18:42:29.504Z,77.28
2023-03-11T18:44:58.213Z,77.23
2023-03-11T18:47:25.347Z,77.03
2023-03-11T18:49:53.135Z,76.95
2023-03-11T18:52:20.268Z,77.14
2023-03-11T18:54:47.389Z,76.40
2023-03-11T18:57:14.606Z,75.82
2023-03-11T18:59:41.988Z,75.43
2023-03-11T19:02:11.027Z,77.59
2023-03-11T19:04:38.235Z,77.44
2023-03-11T19:07:05.483Z,76.04
2023-03-11T19:09:32.775Z,75.67
2023-03-11T19:11:59.952Z,75.35
2023-03-11T19:14:27.110Z,75.68
2023-03-11T19:16:54.313Z,76.18
2023-03-11T19:19:22.974Z,75.35
2023-03-11T19:21:50.107Z,75.38
2023-03-11T19:24:17.443Z,76.50
2023-03-11T19:26:46.090Z,76.98
2023-03-11T19:29:13.745Z,76.55
2023-03-11T19:31:40.814Z,75.46
2023-03-11T19:34:08.001Z,76.31
2023-03-11T19:36:36.555Z,75.23
2023-03-11T19:39:04.890Z,76.27
2023-03-11T19:41:32.058Z,77.08
2023-03-11T19:43:59.153Z,77.14
2023-03-11T19:46:26.455Z,76.48
2023-03-11T19:48:53.683Z,78.03
2023-03-11T19:51:20.819Z,78.39
2023-03-11T19:53:49.370Z,79.75
2023-03-11T19:56:16.546Z,79.73
2023-03-11T19:58:43.649Z,80.37
2023-03-11T20:01:16.119Z,81.18
2023-03-11T20:03:43.352Z,80.76
2023-03-11T20:06:10.631Z,79.67
2023-03-11T20:08:37.873Z,78.42
2023-03-11T20:11:06.917Z,78.56
2023-03-11T20:13:34.166Z,78.91
2023-03-11T20:16:05.978Z,79.71
2023-03-11T20:18:33.231Z,79.18
2023-03-11T20:21:01.696Z,78.95
2023-03-11T20:23:28.862Z,78.65
2023-03-11T20:25:56.259Z,78.33
2023-03-11T20:28:24.966Z,79.91
2023-03-11T20:30:52.215Z,80.85
2023-03-11T20:33:19.467Z,79.14
2023-03-11T20:35:46.753Z,79.27
2023-03-11T20:38:14.135Z,79.52
2023-03-11T20:40:41.410Z,78.70
2023-03-11T20:43:08.655Z,79.57
2023-03-11T20:45:37.212Z,80.33
2023-03-11T20:48:04.465Z,80.03
2023-03-11T20:50:31.623Z,79.19
2023-03-11T20:52:58.918Z,79.59
2023-03-11T20:55:26.130Z,79.93
2023-03-11T20:57:53.446Z,80.98
2023-03-11T21:00:21.299Z,80.36
2023-03-11T21:02:50.102Z,80.71
2023-03-11T21:05:17.572Z,79.76
2023-03-11T21:07:44.860Z,78.89
2023-03-11T21:10:13.003Z,78.46
2023-03-11T21:12:40.210Z,78.95
2023-03-11T21:15:08.320Z,79.08
2023-03-11T21:17:35.976Z,81.31
2023-03-11T21:20:05.177Z,80.19
2023-03-11T21:22:32.537Z,78.74
2023-03-11T21:24:59.910Z,79.38
